sensor_id;sensor_type;location;lat;lon;timestamp;pressure;altitude;pressure_sealevel;temperature;humidity
27210;BME280;14721;42.668;23.386;2023-07-16T00:00:09;95486.81;;;24.84;76.42
27210;BME280;14721;42.668;23.386;2023-07-16T00:02:37;95479.41;;;24.78;76.95
27210;BME280;14721;42.668;23.386;2023-07-16T00:05:02;95485.53;;;24.80;77.04
27210;BME280;14721;42.668;23.386;2023-07-16T00:07:28;95481.09;;;24.79;76.96
27210;BME280;14721;42.668;23.386;2023-07-16T00:09:54;95490.63;;;24.83;76.90
27210;BME280;14721;42.668;23.386;2023-07-16T00:12:19;95480.69;;;24.82;76.80
27210;BME280;14721;42.668;23.386;2023-07-16T00:14:45;95485.84;;;24.91;76.75
27210;BME280;14721;42.668;23.386;2023-07-16T00:17:10;95488.56;;;24.91;76.19
27210;BME280;14721;42.668;23.386;2023-07-16T00:19:36;95484.78;;;24.92;76.13
27210;BME280;14721;42.668;23.386;2023-07-16T00:22:02;95481.03;;;24.93;76.14
27210;BME280;14721;42.668;23.386;2023-07-16T00:24:27;95476.16;;;24.89;75.91
27210;BME280;14721;42.668;23.386;2023-07-16T00:26:53;95468.78;;;24.89;75.54
27210;BME280;14721;42.668;23.386;2023-07-16T00:29:18;95485.06;;;24.97;75.55
27210;BME280;14721;42.668;23.386;2023-07-16T00:31:44;95484.16;;;24.90;75.52
27210;BME280;14721;42.668;23.386;2023-07-16T00:34:09;95488.78;;;24.90;75.48
27210;BME280;14721;42.668;23.386;2023-07-16T00:36:35;95471.69;;;24.81;75.52
27210;BME280;14721;42.668;23.386;2023-07-16T00:39:01;95465.75;;;24.78;75.68
27210;BME280;14721;42.668;23.386;2023-07-16T00:41:26;95490.84;;;24.88;75.79
27210;BME280;14721;42.668;23.386;2023-07-16T00:43:51;95477.16;;;24.81;75.93
27210;BME280;14721;42.668;23.386;2023-07-16T00:46:19;95484.09;;;24.84;75.69
27210;BME280;14721;42.668;23.386;2023-07-16T00:48:44;95483.00;;;24.78;75.96
27210;BME280;14721;42.668;23.386;2023-07-16T00:51:11;95485.34;;;24.81;76.00
27210;BME280;14721;42.668;23.386;2023-07-16T00:53:37;95484.09;;;24.84;75.91
27210;BME280;14721;42.668;23.386;2023-07-16T00:56:03;95483.03;;;24.85;75.93
27210;BME280;14721;42.668;23.386;2023-07-16T00:58:28;95483.25;;;24.83;75.72
27210;BME280;14721;42.668;23.386;2023-07-16T01:00:54;95481.50;;;24.76;75.57
27210;BME280;14721;42.668;23.386;2023-07-16T01:03:19;95472.09;;;24.64;76.17
27210;BME280;14721;42.668;23.386;2023-07-16T01:08:35;95483.88;;;24.64;76.59
27210;BME280;14721;42.668;23.386;2023-07-16T01:11:04;95472.47;;;24.61;76.34
27210;BME280;14721;42.668;23.386;2023-07-16T01:13:29;95466.78;;;24.56;76.44
27210;BME280;14721;42.668;23.386;2023-07-16T01:15:55;95488.31;;;24.65;76.62
27210;BME280;14721;42.668;23.386;2023-07-16T01:18:21;95492.47;;;24.61;76.39
27210;BME280;14721;42.668;23.386;2023-07-16T01:20:47;95476.38;;;24.52;76.81
27210;BME280;14721;42.668;23.386;2023-07-16T01:23:38;95471.00;;;24.58;76.16
27210;BME280;14721;42.668;23.386;2023-07-16T01:27:04;95483.88;;;24.64;76.12
27210;BME280;14721;42.668;23.386;2023-07-16T01:29:12;95488.44;;;24.57;76.39
27210;BME280;14721;42.668;23.386;2023-07-16T01:31:41;95470.88;;;24.45;76.67
27210;BME280;14721;42.668;23.386;2023-07-16T01:34:08;95477.72;;;24.56;76.34
27210;BME280;14721;42.668;23.386;2023-07-16T01:36:36;95480.38;;;24.49;76.73
27210;BME280;14721;42.668;23.386;2023-07-16T01:39:02;95474.03;;;24.49;76.45
27210;BME280;14721;42.668;23.386;2023-07-16T01:41:28;95475.69;;;24.43;76.68
27210;BME280;14721;42.668;23.386;2023-07-16T01:43:53;95471.44;;;24.20;77.38
27210;BME280;14721;42.668;23.386;2023-07-16T01:46:19;95481.59;;;24.11;77.80
27210;BME280;14721;42.668;23.386;2023-07-16T01:48:44;95469.41;;;23.92;78.32
27210;BME280;14721;42.668;23.386;2023-07-16T01:51:10;95484.72;;;24.08;78.17
27210;BME280;14721;42.668;23.386;2023-07-16T01:53:42;95493.50;;;24.03;78.05
27210;BME280;14721;42.668;23.386;2023-07-16T01:56:07;95476.19;;;23.96;78.61
27210;BME280;14721;42.668;23.386;2023-07-16T01:58:33;95489.28;;;24.01;78.43
27210;BME280;14721;42.668;23.386;2023-07-16T02:00:58;95482.75;;;24.02;78.57
27210;BME280;14721;42.668;23.386;2023-07-16T02:03:24;95458.22;;;23.87;78.25
27210;BME280;14721;42.668;23.386;2023-07-16T02:05:50;95473.47;;;23.96;78.17
27210;BME280;14721;42.668;23.386;2023-07-16T02:08:16;95495.59;;;24.02;78.16
27210;BME280;14721;42.668;23.386;2023-07-16T02:10:42;95471.56;;;23.82;78.36
27210;BME280;14721;42.668;23.386;2023-07-16T02:13:07;95463.31;;;23.76;78.90
27210;BME280;14721;42.668;23.386;2023-07-16T02:15:33;95484.00;;;23.85;78.88
27210;BME280;14721;42.668;23.386;2023-07-16T02:17:58;95469.72;;;23.68;79.07
27210;BME280;14721;42.668;23.386;2023-07-16T02:20:24;95494.34;;;23.75;79.22
27210;BME280;14721;42.668;23.386;2023-07-16T02:22:49;95486.63;;;23.78;79.32
27210;BME280;14721;42.668;23.386;2023-07-16T02:25:15;95489.28;;;23.72;79.25
27210;BME280;14721;42.668;23.386;2023-07-16T02:27:40;95494.66;;;23.65;79.45
27210;BME280;14721;42.668;23.386;2023-07-16T02:30:06;95495.13;;;23.54;79.81
27210;BME280;14721;42.668;23.386;2023-07-16T02:32:32;95486.56;;;23.43;80.56
27210;BME280;14721;42.668;23.386;2023-07-16T02:34:58;95495.00;;;23.48;80.45
27210;BME280;14721;42.668;23.386;2023-07-16T02:37:23;95492.28;;;23.48;80.53
27210;BME280;14721;42.668;23.386;2023-07-16T02:39:49;95496.25;;;23.45;80.66
27210;BME280;14721;42.668;23.386;2023-07-16T02:42:14;95480.94;;;23.44;80.82
27210;BME280;14721;42.668;23.386;2023-07-16T02:44:40;95486.28;;;23.52;81.16
27210;BME280;14721;42.668;23.386;2023-07-16T02:47:10;95474.91;;;23.49;81.04
27210;BME280;14721;42.668;23.386;2023-07-16T02:49:37;95479.41;;;23.56;80.77
27210;BME280;14721;42.668;23.386;2023-07-16T02:52:02;95485.25;;;23.53;80.68
27210;BME280;14721;42.668;23.386;2023-07-16T02:54:28;95496.16;;;23.53;80.63
27210;BME280;14721;42.668;23.386;2023-07-16T02:56:53;95491.53;;;23.54;81.63
27210;BME280;14721;42.668;23.386;2023-07-16T02:59:19;95470.75;;;23.53;81.46
27210;BME280;14721;42.668;23.386;2023-07-16T03:01:44;95492.41;;;23.54;82.26
27210;BME280;14721;42.668;23.386;2023-07-16T03:04:09;95475.94;;;23.48;81.91
27210;BME280;14721;42.668;23.386;2023-07-16T03:06:35;95477.91;;;23.54;81.79
27210;BME280;14721;42.668;23.386;2023-07-16T03:09:00;95494.47;;;23.67;81.56
27210;BME280;14721;42.668;23.386;2023-07-16T03:11:26;95494.00;;;23.63;81.86
27210;BME280;14721;42.668;23.386;2023-07-16T03:13:51;95503.09;;;23.70;81.40
27210;BME280;14721;42.668;23.386;2023-07-16T03:16:17;95500.09;;;23.80;80.83
27210;BME280;14721;42.668;23.386;2023-07-16T03:18:44;95501.31;;;23.92;79.90
27210;BME280;14721;42.668;23.386;2023-07-16T03:23:34;95502.69;;;24.17;78.41
27210;BME280;14721;42.668;23.386;2023-07-16T03:26:00;95507.75;;;24.35;77.44
27210;BME280;14721;42.668;23.386;2023-07-16T03:28:25;95505.06;;;24.41;76.86
27210;BME280;14721;42.668;23.386;2023-07-16T03:30:51;95507.91;;;24.69;76.05
27210;BME280;14721;42.668;23.386;2023-07-16T03:33:17;95519.81;;;25.03;74.58
27210;BME280;14721;42.668;23.386;2023-07-16T03:35:44;95519.50;;;25.19;73.48
27210;BME280;14721;42.668;23.386;2023-07-16T03:38:10;95516.84;;;25.26;71.71
27210;BME280;14721;42.668;23.386;2023-07-16T03:40:36;95514.50;;;25.44;71.22
27210;BME280;14721;42.668;23.386;2023-07-16T03:43:01;95514.13;;;25.88;69.66
27210;BME280;14721;42.668;23.386;2023-07-16T03:45:27;95521.34;;;26.36;67.89
27210;BME280;14721;42.668;23.386;2023-07-16T03:47:53;95521.06;;;26.91;65.02
27210;BME280;14721;42.668;23.386;2023-07-16T03:50:18;95535.03;;;27.22;63.63
27210;BME280;14721;42.668;23.386;2023-07-16T03:52:44;95523.69;;;27.31;62.23
27210;BME280;14721;42.668;23.386;2023-07-16T03:55:10;95532.09;;;27.69;60.64
27210;BME280;14721;42.668;23.386;2023-07-16T03:57:35;95514.97;;;28.00;59.71
27210;BME280;14721;42.668;23.386;2023-07-16T04:00:02;95524.06;;;28.88;57.44
27210;BME280;14721;42.668;23.386;2023-07-16T04:02:29;95522.00;;;29.46;55.78
27210;BME280;14721;42.668;23.386;2023-07-16T04:04:54;95516.31;;;29.90;53.65
27210;BME280;14721;42.668;23.386;2023-07-16T04:07:20;95523.56;;;30.45;51.61
27210;BME280;14721;42.668;23.386;2023-07-16T04:09:46;95524.03;;;30.90;50.39
27210;BME280;14721;42.668;23.386;2023-07-16T04:12:12;95512.94;;;31.08;49.33
27210;BME280;14721;42.668;23.386;2023-07-16T04:14:37;95525.94;;;31.60;48.15
27210;BME280;14721;42.668;23.386;2023-07-16T04:17:03;95525.47;;;31.75;47.52
27210;BME280;14721;42.668;23.386;2023-07-16T04:19:29;95510.88;;;31.97;46.33
27210;BME280;14721;42.668;23.386;2023-07-16T04:21:54;95528.50;;;32.19;46.02
27210;BME280;14721;42.668;23.386;2023-07-16T04:24:20;95530.31;;;32.48;45.23
27210;BME280;14721;42.668;23.386;2023-07-16T04:26:45;95530.88;;;32.50;45.17
27210;BME280;14721;42.668;23.386;2023-07-16T04:29:11;95536.09;;;32.47;45.21
27210;BME280;14721;42.668;23.386;2023-07-16T04:31:36;95532.09;;;32.54;44.85
27210;BME280;14721;42.668;23.386;2023-07-16T04:34:02;95529.50;;;32.76;44.10
27210;BME280;14721;42.668;23.386;2023-07-16T04:36:27;95523.28;;;33.09;43.25
27210;BME280;14721;42.668;23.386;2023-07-16T04:38:52;95543.47;;;33.09;43.82
27210;BME280;14721;42.668;23.386;2023-07-16T04:41:18;95547.28;;;33.48;42.57
27210;BME280;14721;42.668;23.386;2023-07-16T04:43:43;95544.22;;;33.33;42.91
27210;BME280;14721;42.668;23.386;2023-07-16T04:46:09;95553.59;;;33.76;42.09
27210;BME280;14721;42.668;23.386;2023-07-16T04:48:34;95539.63;;;33.99;41.80
27210;BME280;14721;42.668;23.386;2023-07-16T04:51:00;95538.00;;;34.20;40.71
27210;BME280;14721;42.668;23.386;2023-07-16T04:53:25;95546.00;;;33.83;41.85
27210;BME280;14721;42.668;23.386;2023-07-16T04:55:51;95527.16;;;34.18;40.68
27210;BME280;14721;42.668;23.386;2023-07-16T04:58:16;95539.59;;;34.71;39.66
27210;BME280;14721;42.668;23.386;2023-07-16T05:00:42;95534.66;;;34.56;40.09
27210;BME280;14721;42.668;23.386;2023-07-16T05:03:08;95547.38;;;34.90;39.80
27210;BME280;14721;42.668;23.386;2023-07-16T05:05:33;95543.81;;;34.95;39.50
27210;BME280;14721;42.668;23.386;2023-07-16T05:08:00;95553.72;;;34.69;39.58
27210;BME280;14721;42.668;23.386;2023-07-16T05:10:27;95554.59;;;35.13;38.55
27210;BME280;14721;42.668;23.386;2023-07-16T05:12:52;95554.09;;;34.94;39.59
27210;BME280;14721;42.668;23.386;2023-07-16T05:15:18;95538.81;;;35.40;38.52
27210;BME280;14721;42.668;23.386;2023-07-16T05:17:43;95555.16;;;35.63;38.26
27210;BME280;14721;42.668;23.386;2023-07-16T05:20:09;95555.25;;;35.99;37.08
27210;BME280;14721;42.668;23.386;2023-07-16T05:22:35;95533.47;;;35.86;37.52
27210;BME280;14721;42.668;23.386;2023-07-16T05:25:01;95550.03;;;36.08;37.12
27210;BME280;14721;42.668;23.386;2023-07-16T05:27:27;95553.59;;;36.35;36.58
27210;BME280;14721;42.668;23.386;2023-07-16T05:29:52;95543.72;;;36.23;36.62
27210;BME280;14721;42.668;23.386;2023-07-16T05:32:18;95541.50;;;35.56;37.52
27210;BME280;14721;42.668;23.386;2023-07-16T05:34:43;95544.69;;;36.01;36.91
27210;BME280;14721;42.668;23.386;2023-07-16T05:37:08;95551.41;;;36.11;37.74
27210;BME280;14721;42.668;23.386;2023-07-16T05:39:34;95542.78;;;35.75;37.43
27210;BME280;14721;42.668;23.386;2023-07-16T05:41:59;95557.88;;;36.16;36.29
27210;BME280;14721;42.668;23.386;2023-07-16T05:44:28;95538.25;;;35.69;37.87
27210;BME280;14721;42.668;23.386;2023-07-16T05:46:53;95557.38;;;36.24;37.08
27210;BME280;14721;42.668;23.386;2023-07-16T05:49:19;95549.88;;;36.25;36.94
27210;BME280;14721;42.668;23.386;2023-07-16T05:51:44;95561.25;;;36.55;35.95
27210;BME280;14721;42.668;23.386;2023-07-16T05:54:09;95560.00;;;36.04;36.54
27210;BME280;14721;42.668;23.386;2023-07-16T05:56:35;95567.81;;;36.07;36.77
27210;BME280;14721;42.668;23.386;2023-07-16T05:59:00;95562.34;;;36.17;36.70
27210;BME280;14721;42.668;23.386;2023-07-16T06:01:26;95562.41;;;35.90;36.83
27210;BME280;14721;42.668;23.386;2023-07-16T06:03:51;95540.94;;;36.18;36.10
27210;BME280;14721;42.668;23.386;2023-07-16T06:06:16;95566.56;;;35.88;36.89
27210;BME280;14721;42.668;23.386;2023-07-16T06:08:42;95547.78;;;36.05;37.20
27210;BME280;14721;42.668;23.386;2023-07-16T06:11:08;95565.31;;;36.79;35.26
27210;BME280;14721;42.668;23.386;2023-07-16T06:13:34;95543.13;;;36.52;36.86
27210;BME280;14721;42.668;23.386;2023-07-16T06:15:59;95569.53;;;36.45;36.82
27210;BME280;14721;42.668;23.386;2023-07-16T06:18:25;95553.03;;;36.75;35.96
27210;BME280;14721;42.668;23.386;2023-07-16T06:20:50;95547.44;;;37.26;34.48
27210;BME280;14721;42.668;23.386;2023-07-16T06:23:18;95557.53;;;36.81;34.94
27210;BME280;14721;42.668;23.386;2023-07-16T06:25:43;95562.41;;;36.64;36.12
27210;BME280;14721;42.668;23.386;2023-07-16T06:28:15;95555.41;;;37.03;34.45
27210;BME280;14721;42.668;23.386;2023-07-16T06:30:40;95540.09;;;36.59;35.39
27210;BME280;14721;42.668;23.386;2023-07-16T06:33:06;95560.75;;;36.68;35.46
27210;BME280;14721;42.668;23.386;2023-07-16T06:35:32;95556.44;;;36.92;34.91
27210;BME280;14721;42.668;23.386;2023-07-16T06:37:57;95548.25;;;35.97;35.65
27210;BME280;14721;42.668;23.386;2023-07-16T06:40:24;95534.13;;;36.03;35.94
27210;BME280;14721;42.668;23.386;2023-07-16T06:42:49;95544.56;;;36.60;35.11
27210;BME280;14721;42.668;23.386;2023-07-16T06:45:15;95545.13;;;36.62;35.23
27210;BME280;14721;42.668;23.386;2023-07-16T06:47:40;95552.03;;;36.96;34.71
27210;BME280;14721;42.668;23.386;2023-07-16T06:50:06;95548.19;;;37.12;34.73
27210;BME280;14721;42.668;23.386;2023-07-16T06:52:31;95540.88;;;37.01;34.54
27210;BME280;14721;42.668;23.386;2023-07-16T06:54:57;95528.22;;;36.73;34.45
27210;BME280;14721;42.668;23.386;2023-07-16T06:57:23;95537.75;;;36.82;34.17
27210;BME280;14721;42.668;23.386;2023-07-16T06:59:49;95541.16;;;36.53;34.81
27210;BME280;14721;42.668;23.386;2023-07-16T07:02:16;95535.75;;;36.31;35.98
27210;BME280;14721;42.668;23.386;2023-07-16T07:04:42;95518.44;;;36.71;35.39
27210;BME280;14721;42.668;23.386;2023-07-16T07:07:07;95541.06;;;37.36;33.81
27210;BME280;14721;42.668;23.386;2023-07-16T07:09:33;95539.13;;;36.75;34.70
27210;BME280;14721;42.668;23.386;2023-07-16T07:11:58;95545.81;;;36.79;35.02
27210;BME280;14721;42.668;23.386;2023-07-16T07:14:24;95531.91;;;36.89;34.44
27210;BME280;14721;42.668;23.386;2023-07-16T07:16:49;95534.34;;;37.27;33.99
27210;BME280;14721;42.668;23.386;2023-07-16T07:19:15;95531.34;;;37.48;34.44
27210;BME280;14721;42.668;23.386;2023-07-16T07:21:40;95533.09;;;37.85;32.67
27210;BME280;14721;42.668;23.386;2023-07-16T07:24:06;95527.53;;;36.51;34.39
27210;BME280;14721;42.668;23.386;2023-07-16T07:26:31;95536.72;;;36.15;37.35
27210;BME280;14721;42.668;23.386;2023-07-16T07:28:57;95533.97;;;36.62;35.18
27210;BME280;14721;42.668;23.386;2023-07-16T07:31:22;95533.31;;;36.86;35.39
27210;BME280;14721;42.668;23.386;2023-07-16T07:33:48;95528.53;;;37.53;33.63
27210;BME280;14721;42.668;23.386;2023-07-16T07:36:13;95517.19;;;36.88;34.13
27210;BME280;14721;42.668;23.386;2023-07-16T07:38:39;95521.66;;;36.94;34.99
27210;BME280;14721;42.668;23.386;2023-07-16T07:41:05;95534.38;;;37.42;33.70
27210;BME280;14721;42.668;23.386;2023-07-16T07:43:31;95524.47;;;36.53;35.74
27210;BME280;14721;42.668;23.386;2023-07-16T07:45:56;95532.16;;;36.77;35.07
27210;BME280;14721;42.668;23.386;2023-07-16T07:48:22;95526.09;;;36.90;34.89
27210;BME280;14721;42.668;23.386;2023-07-16T07:50:47;95531.84;;;37.30;34.83
27210;BME280;14721;42.668;23.386;2023-07-16T07:53:13;95524.31;;;37.31;34.16
27210;BME280;14721;42.668;23.386;2023-07-16T07:55:40;95523.19;;;37.27;34.17
27210;BME280;14721;42.668;23.386;2023-07-16T07:58:07;95526.47;;;37.19;34.95
27210;BME280;14721;42.668;23.386;2023-07-16T08:00:33;95537.81;;;37.69;33.55
27210;BME280;14721;42.668;23.386;2023-07-16T08:02:58;95522.47;;;36.95;34.43
27210;BME280;14721;42.668;23.386;2023-07-16T08:05:24;95528.31;;;36.93;35.25
27210;BME280;14721;42.668;23.386;2023-07-16T08:07:49;95518.63;;;37.06;34.65
27210;BME280;14721;42.668;23.386;2023-07-16T08:10:15;95524.31;;;37.31;34.95
27210;BME280;14721;42.668;23.386;2023-07-16T08:12:40;95531.34;;;37.48;34.28
27210;BME280;14721;42.668;23.386;2023-07-16T08:15:06;95509.88;;;37.59;34.05
27210;BME280;14721;42.668;23.386;2023-07-16T08:17:33;95519.06;;;37.59;33.96
27210;BME280;14721;42.668;23.386;2023-07-16T08:19:58;95517.63;;;37.37;34.29
27210;BME280;14721;42.668;23.386;2023-07-16T08:22:24;95519.47;;;37.11;35.58
27210;BME280;14721;42.668;23.386;2023-07-16T08:24:51;95521.28;;;37.52;34.68
27210;BME280;14721;42.668;23.386;2023-07-16T08:27:16;95507.69;;;37.86;33.65
27210;BME280;14721;42.668;23.386;2023-07-16T08:29:42;95520.75;;;37.55;34.35
27210;BME280;14721;42.668;23.386;2023-07-16T08:32:07;95523.13;;;37.17;35.99
27210;BME280;14721;42.668;23.386;2023-07-16T08:34:33;95529.44;;;37.69;34.73
27210;BME280;14721;42.668;23.386;2023-07-16T08:36:58;95525.03;;;38.13;33.46
27210;BME280;14721;42.668;23.386;2023-07-16T08:39:24;95525.00;;;37.93;33.96
27210;BME280;14721;42.668;23.386;2023-07-16T08:41:49;95523.03;;;37.89;34.73
27210;BME280;14721;42.668;23.386;2023-07-16T08:44:15;95521.66;;;38.26;33.73
27210;BME280;14721;42.668;23.386;2023-07-16T08:46:42;95517.19;;;37.80;34.75
27210;BME280;14721;42.668;23.386;2023-07-16T08:49:08;95513.00;;;37.73;35.20
27210;BME280;14721;42.668;23.386;2023-07-16T08:51:35;95510.78;;;38.10;33.89
27210;BME280;14721;42.668;23.386;2023-07-16T08:54:01;95513.28;;;38.11;33.74
27210;BME280;14721;42.668;23.386;2023-07-16T08:56:27;95504.88;;;38.36;33.55
27210;BME280;14721;42.668;23.386;2023-07-16T08:58:55;95495.44;;;38.12;33.54
27210;BME280;14721;42.668;23.386;2023-07-16T09:01:23;95510.75;;;37.80;34.33
27210;BME280;14721;42.668;23.386;2023-07-16T09:03:49;95504.34;;;37.79;34.36
27210;BME280;14721;42.668;23.386;2023-07-16T09:06:14;95497.09;;;37.78;35.11
27210;BME280;14721;42.668;23.386;2023-07-16T09:08:40;95509.66;;;37.86;34.86
27210;BME280;14721;42.668;23.386;2023-07-16T09:11:11;95502.38;;;38.05;34.59
27210;BME280;14721;42.668;23.386;2023-07-16T09:13:37;95492.34;;;37.94;33.96
27210;BME280;14721;42.668;23.386;2023-07-16T09:16:03;95497.63;;;37.70;34.42
27210;BME280;14721;42.668;23.386;2023-07-16T09:18:29;95495.38;;;37.62;34.63
27210;BME280;14721;42.668;23.386;2023-07-16T09:20:58;95488.16;;;37.66;34.95
27210;BME280;14721;42.668;23.386;2023-07-16T09:23:25;95479.31;;;36.92;35.71
27210;BME280;14721;42.668;23.386;2023-07-16T09:25:53;95500.06;;;36.70;36.43
27210;BME280;14721;42.668;23.386;2023-07-16T09:28:19;95495.38;;;36.29;36.81
27210;BME280;14721;42.668;23.386;2023-07-16T09:30:46;95474.00;;;35.97;38.02
27210;BME280;14721;42.668;23.386;2023-07-16T09:33:20;95489.16;;;36.63;36.98
27210;BME280;14721;42.668;23.386;2023-07-16T09:35:48;95482.94;;;36.93;37.65
27210;BME280;14721;42.668;23.386;2023-07-16T09:38:14;95457.38;;;36.08;37.52
27210;BME280;14721;42.668;23.386;2023-07-16T09:40:40;95483.25;;;36.50;38.36
27210;BME280;14721;42.668;23.386;2023-07-16T09:43:08;95474.47;;;35.84;38.27
27210;BME280;14721;42.668;23.386;2023-07-16T09:45:34;95474.72;;;35.25;39.04
27210;BME280;14721;42.668;23.386;2023-07-16T09:47:59;95477.13;;;34.47;41.03
27210;BME280;14721;42.668;23.386;2023-07-16T09:50:28;95469.69;;;34.52;42.01
27210;BME280;14721;42.668;23.386;2023-07-16T09:52:56;95463.88;;;34.75;42.09
27210;BME280;14721;42.668;23.386;2023-07-16T09:55:22;95476.59;;;34.93;41.60
27210;BME280;14721;42.668;23.386;2023-07-16T09:57:49;95468.78;;;35.16;41.26
27210;BME280;14721;42.668;23.386;2023-07-16T10:00:17;95473.66;;;35.04;41.10
27210;BME280;14721;42.668;23.386;2023-07-16T10:02:45;95477.28;;;34.40;41.95
27210;BME280;14721;42.668;23.386;2023-07-16T10:05:23;95456.09;;;34.34;41.90
27210;BME280;14721;42.668;23.386;2023-07-16T10:07:51;95466.81;;;34.25;42.98
27210;BME280;14721;42.668;23.386;2023-07-16T10:10:18;95455.44;;;34.44;42.80
27210;BME280;14721;42.668;23.386;2023-07-16T10:13:03;95461.88;;;34.49;42.92
27210;BME280;14721;42.668;23.386;2023-07-16T10:15:29;95453.72;;;34.43;43.21
27210;BME280;14721;42.668;23.386;2023-07-16T10:17:55;95454.84;;;34.25;43.75
27210;BME280;14721;42.668;23.386;2023-07-16T10:20:35;95453.38;;;34.17;43.14
27210;BME280;14721;42.668;23.386;2023-07-16T10:25:47;95451.00;;;33.55;43.97
27210;BME280;14721;42.668;23.386;2023-07-16T10:28:22;95452.84;;;33.49;44.42
27210;BME280;14721;42.668;23.386;2023-07-16T10:30:49;95454.69;;;33.60;44.28
27210;BME280;14721;42.668;23.386;2023-07-16T10:33:15;95431.50;;;33.66;44.23
27210;BME280;14721;42.668;23.386;2023-07-16T10:35:45;95442.34;;;33.68;44.56
27210;BME280;14721;42.668;23.386;2023-07-16T10:38:11;95442.69;;;33.88;43.65
27210;BME280;14721;42.668;23.386;2023-07-16T10:40:41;95427.34;;;33.47;44.29
27210;BME280;14721;42.668;23.386;2023-07-16T10:43:08;95436.66;;;33.41;45.18
27210;BME280;14721;42.668;23.386;2023-07-16T10:45:33;95446.38;;;33.44;44.39
27210;BME280;14721;42.668;23.386;2023-07-16T10:47:59;95440.41;;;33.35;44.09
27210;BME280;14721;42.668;23.386;2023-07-16T10:50:25;95441.44;;;33.46;43.22
27210;BME280;14721;42.668;23.386;2023-07-16T10:52:52;95410.97;;;33.46;43.16
27210;BME280;14721;42.668;23.386;2023-07-16T10:55:18;95433.66;;;33.81;43.19
27210;BME280;14721;42.668;23.386;2023-07-16T10:57:44;95437.94;;;34.05;43.10
27210;BME280;14721;42.668;23.386;2023-07-16T11:00:10;95431.34;;;34.11;43.71
27210;BME280;14721;42.668;23.386;2023-07-16T11:02:39;95416.53;;;33.84;44.36
27210;BME280;14721;42.668;23.386;2023-07-16T11:05:13;95425.75;;;34.06;43.95
27210;BME280;14721;42.668;23.386;2023-07-16T11:07:43;95421.25;;;34.00;44.01
27210;BME280;14721;42.668;23.386;2023-07-16T11:10:09;95421.28;;;33.67;43.62
27210;BME280;14721;42.668;23.386;2023-07-16T11:12:34;95421.78;;;33.47;44.29
27210;BME280;14721;42.668;23.386;2023-07-16T11:15:00;95410.25;;;33.55;43.75
27210;BME280;14721;42.668;23.386;2023-07-16T11:17:25;95411.94;;;33.73;42.75
27210;BME280;14721;42.668;23.386;2023-07-16T11:19:52;95401.56;;;33.47;42.52
27210;BME280;14721;42.668;23.386;2023-07-16T11:22:18;95418.31;;;33.57;42.44
27210;BME280;14721;42.668;23.386;2023-07-16T11:24:48;95407.72;;;33.70;42.00
27210;BME280;14721;42.668;23.386;2023-07-16T11:27:25;95405.81;;;33.87;41.92
27210;BME280;14721;42.668;23.386;2023-07-16T11:29:53;95411.16;;;33.94;40.98
27210;BME280;14721;42.668;23.386;2023-07-16T11:32:30;95412.91;;;34.00;41.17
27210;BME280;14721;42.668;23.386;2023-07-16T11:34:57;95394.59;;;33.82;41.24
27210;BME280;14721;42.668;23.386;2023-07-16T11:37:27;95396.72;;;33.92;40.49
27210;BME280;14721;42.668;23.386;2023-07-16T11:40:17;95397.19;;;34.05;40.87
27210;BME280;14721;42.668;23.386;2023-07-16T11:42:43;95375.06;;;34.10;40.53
27210;BME280;14721;42.668;23.386;2023-07-16T11:45:22;95396.84;;;34.40;40.49
27210;BME280;14721;42.668;23.386;2023-07-16T11:47:48;95395.72;;;34.41;40.60
27210;BME280;14721;42.668;23.386;2023-07-16T11:50:15;95405.41;;;34.60;39.79
27210;BME280;14721;42.668;23.386;2023-07-16T11:52:41;95392.78;;;34.74;40.14
27210;BME280;14721;42.668;23.386;2023-07-16T11:55:07;95388.94;;;34.80;39.69
27210;BME280;14721;42.668;23.386;2023-07-16T11:57:33;95378.88;;;34.96;39.41
27210;BME280;14721;42.668;23.386;2023-07-16T11:59:59;95393.38;;;35.03;38.88
27210;BME280;14721;42.668;23.386;2023-07-16T12:02:26;95384.44;;;34.96;39.01
27210;BME280;14721;42.668;23.386;2023-07-16T12:04:51;95387.19;;;34.69;39.76
27210;BME280;14721;42.668;23.386;2023-07-16T12:07:33;95380.25;;;34.72;40.13
27210;BME280;14721;42.668;23.386;2023-07-16T12:09:59;95386.75;;;34.82;39.75
27210;BME280;14721;42.668;23.386;2023-07-16T12:12:25;95370.47;;;34.86;38.68
27210;BME280;14721;42.668;23.386;2023-07-16T12:14:51;95378.88;;;34.74;39.62
27210;BME280;14721;42.668;23.386;2023-07-16T12:17:16;95382.31;;;34.81;39.19
27210;BME280;14721;42.668;23.386;2023-07-16T12:19:42;95377.47;;;34.93;38.42
27210;BME280;14721;42.668;23.386;2023-07-16T12:22:08;95378.53;;;34.87;36.36
27210;BME280;14721;42.668;23.386;2023-07-16T12:24:34;95374.16;;;34.96;37.23
27210;BME280;14721;42.668;23.386;2023-07-16T12:26:59;95366.19;;;34.78;37.87
27210;BME280;14721;42.668;23.386;2023-07-16T12:29:25;95355.81;;;34.69;38.23
27210;BME280;14721;42.668;23.386;2023-07-16T12:31:50;95371.84;;;34.88;37.81
27210;BME280;14721;42.668;23.386;2023-07-16T12:34:16;95374.91;;;34.65;37.49
27210;BME280;14721;42.668;23.386;2023-07-16T12:36:41;95366.81;;;34.37;36.83
27210;BME280;14721;42.668;23.386;2023-07-16T12:39:07;95364.88;;;34.16;37.00
27210;BME280;14721;42.668;23.386;2023-07-16T12:41:32;95363.13;;;34.10;37.07
27210;BME280;14721;42.668;23.386;2023-07-16T12:43:58;95355.41;;;34.12;37.06
27210;BME280;14721;42.668;23.386;2023-07-16T12:46:23;95348.69;;;34.08;36.86
27210;BME280;14721;42.668;23.386;2023-07-16T12:48:49;95354.47;;;34.06;36.11
27210;BME280;14721;42.668;23.386;2023-07-16T12:51:14;95355.91;;;34.09;36.00
27210;BME280;14721;42.668;23.386;2023-07-16T12:53:39;95363.00;;;34.21;36.48